Time;durP1;ratioP1;P1;durP2;ratioP2;P2;SDS_P1;SDS_P2;PMS_P1;PMS_P2;Temp;Humidity;BMP_temperature;BMP_pressure;BME280_temperature;BME280_humidity;BME280_pressure;Samples;Min_cycle;Max_cycle;Signal;HPM_P1;HPM_P2
2021/11/07 00:00:39;;;;;;;22.92;15.32;;;;;;;7.86;100.00;101156.00;5113356;28;20047;-75
2021/11/07 00:03:13;;;;;;;23.42;16.05;;;;;;;7.74;100.00;101149.34;5113269;28;20052;-74
2021/11/07 00:05:46;;;;;;;;;;;;;;;7.72;100.00;101151.16;5113844;28;20040;-75
2021/11/07 00:08:36;;;;;;;26.48;16.15;;;;;;;7.70;100.00;101147.69;5113404;28;19924;-74
2021/11/07 00:11:08;;;;;;;24.85;15.27;;;;;;;7.77;100.00;101154.53;5113355;28;20051;-75
2021/11/07 00:13:36;;;;;;;25.67;16.65;;;;;;;7.62;100.00;101147.94;5113257;28;20040;-75
2021/11/07 00:16:09;;;;;;;24.25;16.15;;;;;;;7.58;100.00;101153.44;5113270;28;20431;-75
2021/11/07 00:18:41;;;;;;;29.50;16.77;;;;;;;7.59;100.00;101156.03;5112909;28;20071;-74
2021/11/07 00:21:15;;;;;;;24.80;16.08;;;;;;;7.54;100.00;101152.69;5113122;28;20052;-74
2021/11/07 00:23:56;;;;;;;26.38;16.58;;;;;;;7.53;100.00;101150.03;5113184;28;20063;-74
2021/11/07 00:26:33;;;;;;;28.17;16.67;;;;;;;7.55;100.00;101150.88;5113389;28;20043;-76
2021/11/07 00:29:06;;;;;;;27.58;17.52;;;;;;;7.59;100.00;101157.81;5113589;28;20043;-74
2021/11/07 00:31:44;;;;;;;25.75;16.58;;;;;;;7.55;100.00;101162.38;5113112;28;20036;-74
2021/11/07 00:37:08;;;;;;;27.80;16.98;;;;;;;7.61;100.00;101142.69;5113032;28;20088;-77
2021/11/07 00:39:45;;;;;;;26.02;16.70;;;;;;;7.72;100.00;101143.19;5098365;28;20044;-77
2021/11/07 00:42:19;;;;;;;28.13;16.98;;;;;;;7.72;100.00;101135.22;5117541;28;20039;-78
2021/11/07 00:44:56;;;;;;;26.23;16.48;;;;;;;7.89;100.00;101132.84;5116993;28;20070;-72
2021/11/07 00:47:34;;;;;;;26.90;16.98;;;;;;;7.89;100.00;101137.31;5116990;28;20046;-73
2021/11/07 00:50:07;;;;;;;26.77;16.58;;;;;;;7.80;100.00;101135.84;5116996;28;20078;-73
2021/11/07 00:52:49;;;;;;;27.95;17.15;;;;;;;7.72;100.00;101133.47;5116866;28;20097;-73
2021/11/07 00:55:22;;;;;;;26.70;16.92;;;;;;;7.71;100.00;101125.53;5116804;28;20039;-73
2021/11/07 00:57:56;;;;;;;27.58;17.08;;;;;;;7.68;100.00;101120.34;5116331;28;20089;-73
2021/11/07 01:00:37;;;;;;;25.20;16.67;;;;;;;7.69;100.00;101114.97;5098797;28;20054;-71
2021/11/07 01:03:13;;;;;;;26.02;15.50;;;;;;;7.73;100.00;101097.16;5116946;28;20046;-72
2021/11/07 01:05:41;;;;;;;25.38;16.02;;;;;;;7.70;100.00;101090.13;5116285;28;20477;-72
2021/11/07 01:08:11;;;;;;;24.70;16.05;;;;;;;7.69;100.00;101092.84;5098752;28;20073;-72
2021/11/07 01:10:39;;;;;;;27.45;16.20;;;;;;;7.67;100.00;101110.63;5098107;28;20055;-72
2021/11/07 01:13:08;;;;;;;29.10;16.88;;;;;;;7.65;100.00;101101.84;5116663;28;20123;-72
2021/11/07 01:15:37;;;;;;;26.13;15.60;;;;;;;7.65;100.00;101096.56;5116378;28;20044;-72
2021/11/07 01:18:06;;;;;;;28.15;16.42;;;;;;;7.69;100.00;101087.53;5116556;28;20098;-72
2021/11/07 01:20:35;;;;;;;26.50;15.95;;;;;;;7.70;100.00;101094.59;5116341;28;20399;-71
2021/11/07 01:23:12;;;;;;;26.73;15.85;;;;;;;7.70;100.00;101084.81;5116534;28;20040;-71
2021/11/07 01:25:45;;;;;;;27.08;16.50;;;;;;;7.72;100.00;101084.75;5115913;28;20044;-72
2021/11/07 01:28:14;;;;;;;29.52;16.65;;;;;;;7.72;100.00;101096.28;5116719;28;20050;-71
2021/11/07 01:30:48;;;;;;;26.88;16.20;;;;;;;7.71;100.00;101096.31;5116093;28;20050;-71
2021/11/07 01:33:20;;;;;;;24.08;15.82;;;;;;;7.73;100.00;101086.53;5116423;28;20055;-71
2021/11/07 01:35:56;;;;;;;27.48;16.65;;;;;;;7.72;100.00;101083.00;5116213;28;20040;-71
2021/11/07 01:38:27;;;;;;;24.65;15.52;;;;;;;7.86;100.00;101079.84;5116311;28;20044;-71
2021/11/07 01:41:02;;;;;;;24.92;15.43;;;;;;;8.00;100.00;101082.84;5116443;28;20050;-75
2021/11/07 01:43:31;;;;;;;25.58;15.98;;;;;;;7.92;100.00;101068.16;5115631;28;20035;-75
2021/11/07 01:46:08;;;;;;;22.10;14.18;;;;;;;8.08;100.00;101064.00;5115755;28;20047;-75
2021/11/07 01:48:44;;;;;;;23.50;14.10;;;;;;;8.21;100.00;101059.97;5115723;28;20036;-75
2021/11/07 01:51:12;;;;;;;26.50;15.60;;;;;;;8.09;100.00;101062.19;5116166;28;20047;-75
2021/11/07 01:53:41;;;;;;;23.25;14.80;;;;;;;8.02;100.00;101062.44;5115447;28;20092;-75
2021/11/07 01:56:13;;;;;;;22.50;14.73;;;;;;;8.22;100.00;101055.53;5116159;28;20044;-75
2021/11/07 01:58:44;;;;;;;24.08;14.48;;;;;;;8.06;100.00;101052.56;5097330;28;20063;-75
2021/11/07 02:01:13;;;;;;;23.58;15.00;;;;;;;8.08;100.00;101049.84;5116183;28;20388;-75
2021/11/07 02:03:41;;;;;;;25.33;15.20;;;;;;;7.91;100.00;101051.34;5115380;28;20071;-75
2021/11/07 02:06:09;;;;;;;23.40;15.10;;;;;;;7.90;100.00;101048.72;5115902;28;20039;-75
2021/11/07 02:08:37;;;;;;;23.23;14.85;;;;;;;7.89;100.00;101057.63;5115077;28;20035;-75
2021/11/07 02:11:06;;;;;;;24.00;14.80;;;;;;;7.76;100.00;101057.19;5115771;28;20048;-73
2021/11/07 02:13:36;;;;;;;23.73;15.27;;;;;;;7.70;100.00;101062.72;5115199;28;20085;-73
2021/11/07 02:16:05;;;;;;;23.60;14.60;;;;;;;7.67;100.00;101065.50;5115563;28;20044;-74
2021/11/07 02:18:33;;;;;;;26.05;15.77;;;;;;;7.72;100.00;101063.53;5115285;28;20481;-76
2021/11/07 02:21:05;;;;;;;24.92;15.30;;;;;;;7.76;100.00;101054.53;5114969;28;20416;-75
2021/11/07 02:23:35;;;;;;;22.35;14.52;;;;;;;7.75;100.00;101053.69;5115290;28;20074;-75
2021/11/07 02:26:06;;;;;;;23.42;15.07;;;;;;;7.69;100.00;101056.53;5115228;28;20039;-74
2021/11/07 02:28:37;;;;;;;22.83;15.20;;;;;;;7.68;100.00;101043.31;5114742;28;20036;-75
2021/11/07 02:31:10;;;;;;;23.85;14.77;;;;;;;7.69;100.00;101035.28;5115397;28;20100;-75
2021/11/07 02:33:39;;;;;;;21.15;14.15;;;;;;;8.06;100.00;101022.47;5114974;28;20122;-75
2021/11/07 02:36:11;;;;;;;20.40;14.13;;;;;;;8.24;100.00;101006.69;5115185;28;20473;-75
2021/11/07 02:38:40;;;;;;;24.33;15.35;;;;;;;8.22;100.00;101002.38;5114501;28;20443;-75
2021/11/07 02:41:09;;;;;;;21.27;14.70;;;;;;;8.02;100.00;101001.34;5114846;28;20043;-74
2021/11/07 02:43:42;;;;;;;22.95;14.40;;;;;;;8.06;100.00;101004.72;5114619;28;20078;-75
2021/11/07 02:46:15;;;;;;;21.02;14.25;;;;;;;8.06;100.00;100991.44;5114954;28;20122;-75
2021/11/07 02:48:44;;;;;;;22.58;14.40;;;;;;;8.06;100.00;100990.59;5114626;28;20093;-74
2021/11/07 02:51:15;;;;;;;23.35;14.88;;;;;;;8.13;100.00;100976.16;5114923;28;20043;-74
2021/11/07 02:53:43;;;;;;;21.92;14.27;;;;;;;7.97;100.00;100960.78;5114505;28;20569;-75
2021/11/07 02:56:14;;;;;;;23.58;15.20;;;;;;;7.95;100.00;100957.31;5114928;28;20477;-74
2021/11/07 02:58:42;;;;;;;24.38;15.70;;;;;;;7.89;100.00;100957.53;5114718;28;20052;-71
2021/11/07 03:01:10;;;;;;;22.75;14.38;;;;;;;7.88;100.00;100953.16;5113995;28;20047;-71
2021/11/07 03:03:39;;;;;;;23.42;15.65;;;;;;;7.86;100.00;100949.69;5114214;28;20122;-73
2021/11/07 03:06:07;;;;;;;22.92;14.52;;;;;;;7.94;100.00;100952.94;5114258;28;20408;-73
2021/11/07 03:08:42;;;;;;;23.10;15.25;;;;;;;7.95;100.00;100948.47;5114266;28;20044;-77
2021/11/07 03:11:12;;;;;;;22.27;14.88;;;;;;;8.03;100.00;100926.00;5096303;28;20048;-75
2021/11/07 03:13:41;;;;;;;24.75;15.48;;;;;;;8.03;100.00;100920.69;5114095;28;20055;-75
2021/11/07 03:16:12;;;;;;;25.30;15.70;;;;;;;7.98;100.00;100924.44;5114323;28;20092;-72
2021/11/07 03:18:41;;;;;;;28.40;16.88;;;;;;;7.89;100.00;100930.97;5096124;28;20090;-72
2021/11/07 03:21:11;;;;;;;24.65;16.20;;;;;;;7.80;100.00;100926.00;5114665;28;20539;-71
2021/11/07 03:23:43;;;;;;;26.10;16.50;;;;;;;7.75;100.00;100928.00;5113600;28;20097;-72
2021/11/07 03:26:14;;;;;;;25.38;16.45;;;;;;;7.68;100.00;100931.78;5114217;28;20045;-72
2021/11/07 03:28:44;;;;;;;26.08;16.45;;;;;;;7.80;100.00;100926.00;5095896;28;20400;-73
2021/11/07 03:31:16;;;;;;;26.77;16.40;;;;;;;7.80;100.00;100931.31;5113833;28;20044;-73
2021/11/07 03:33:46;;;;;;;28.70;17.83;;;;;;;7.50;100.00;100920.06;5113781;28;20039;-73
2021/11/07 03:36:17;;;;;;;24.67;16.48;;;;;;;7.58;100.00;100923.31;5113889;28;20073;-73
2021/11/07 03:38:49;;;;;;;27.05;18.17;;;;;;;7.53;100.00;100921.72;5113718;28;20048;-74
2021/11/07 03:41:17;;;;;;;26.77;17.45;;;;;;;7.50;100.00;100917.41;5113825;28;20082;-73
2021/11/07 03:43:47;;;;;;;28.48;17.73;;;;;;;7.42;100.00;100920.34;5113606;28;20122;-74
2021/11/07 03:46:16;;;;;;;28.27;16.77;;;;;;;7.58;100.00;100925.09;5095915;28;20047;-74
2021/11/07 03:48:44;;;;;;;27.15;17.20;;;;;;;7.58;100.00;100933.06;5113498;28;20100;-74
2021/11/07 03:51:15;;;;;;;25.52;16.60;;;;;;;7.57;100.00;100937.50;5113735;28;20066;-75
2021/11/07 03:53:44;;;;;;;26.45;16.75;;;;;;;7.54;100.00;100940.28;5113628;28;20039;-75
2021/11/07 03:56:13;;;;;;;25.13;17.27;;;;;;;7.51;100.00;100948.34;5113792;28;20545;-75
2021/11/07 03:58:42;;;;;;;26.60;17.58;;;;;;;7.45;100.00;100952.09;5113447;28;20138;-74
2021/11/07 04:01:10;;;;;;;25.52;15.85;;;;;;;7.56;100.00;100948.19;5095691;28;20458;-74
2021/11/07 04:03:39;;;;;;;24.83;17.02;;;;;;;7.67;100.00;100940.69;5113672;28;20075;-74
2021/11/07 04:06:07;;;;;;;27.35;16.92;;;;;;;7.68;100.00;100940.63;5113618;28;20051;-74
2021/11/07 04:08:36;;;;;;;26.80;16.98;;;;;;;7.69;100.00;100936.19;5113307;28;20039;-74
2021/11/07 04:11:04;;;;;;;27.50;16.92;;;;;;;7.65;100.00;100930.13;5112921;28;20051;-74
2021/11/07 04:13:37;;;;;;;26.42;16.67;;;;;;;7.59;100.00;100924.16;5115202;28;20047;-73
2021/11/07 04:16:08;;;;;;;25.40;16.40;;;;;;;7.61;100.00;100906.38;5117590;28;20058;-73
2021/11/07 04:18:38;;;;;;;27.25;17.02;;;;;;;7.53;100.00;100903.16;5117945;28;20044;-74
2021/11/07 04:21:07;;;;;;;28.52;17.27;;;;;;;7.46;100.00;100897.22;5117653;28;20048;-75
2021/11/07 04:23:36;;;;;;;28.85;18.52;;;;;;;7.43;100.00;100910.59;5117662;28;20039;-75
2021/11/07 04:26:05;;;;;;;29.33;18.10;;;;;;;7.40;100.00;100916.88;5117232;28;20048;-74
2021/11/07 04:28:35;;;;;;;26.60;17.42;;;;;;;7.41;100.00;100902.69;5117441;28;20504;-74
2021/11/07 04:31:04;;;;;;;26.95;17.83;;;;;;;7.49;100.00;100896.22;5117307;28;20496;-75
2021/11/07 04:33:33;;;;;;;26.95;17.45;;;;;;;7.46;100.00;100895.44;5117566;28;20055;-75
2021/11/07 04:36:02;;;;;;;25.40;16.67;;;;;;;7.48;100.00;100908.66;5117137;28;20042;-73
2021/11/07 04:38:30;;;;;;;25.60;16.95;;;;;;;7.47;100.00;100901.59;5117070;28;20040;-73
2021/11/07 04:40:58;;;;;;;26.02;17.42;;;;;;;7.48;100.00;100908.66;5116969;28;20541;-73
2021/11/07 04:43:27;;;;;;;26.90;17.35;;;;;;;7.45;100.00;100900.81;5117016;28;20110;-74
2021/11/07 04:45:56;;;;;;;31.10;19.30;;;;;;;7.45;100.00;100904.31;5116924;28;20122;-75
2021/11/07 04:48:25;;;;;;;29.30;18.58;;;;;;;7.45;100.00;100904.31;5117479;28;20469;-74
2021/11/07 04:50:54;;;;;;;29.27;18.45;;;;;;;7.49;100.00;100909.50;5116805;28;20126;-75
2021/11/07 04:53:22;;;;;;;27.38;17.65;;;;;;;7.49;100.00;100914.81;5116904;28;20043;-76
2021/11/07 04:55:51;;;;;;;26.98;18.48;;;;;;;7.61;100.00;100914.34;5116711;28;20064;-76
2021/11/07 04:58:19;;;;;;;27.73;16.55;;;;;;;7.64;100.00;100911.59;5116944;28;20147;-75
2021/11/07 05:00:48;;;;;;;25.10;16.88;;;;;;;7.71;100.00;100918.38;5116556;28;20048;-72
2021/11/07 05:03:18;;;;;;;28.63;17.17;;;;;;;7.78;100.00;100922.56;5116907;28;20042;-72
2021/11/07 05:05:46;;;;;;;26.05;16.80;;;;;;;7.75;100.00;100928.84;5116581;28;20392;-73
2021/11/07 05:08:15;;;;;;;28.38;18.13;;;;;;;7.83;100.00;100941.00;5116879;28;20043;-72
2021/11/07 05:10:44;;;;;;;26.35;17.00;;;;;;;7.77;100.00;100934.09;5116958;28;20054;-72
2021/11/07 05:13:13;;;;;;;27.42;17.17;;;;;;;7.67;100.00;100938.03;5116696;28;20040;-72
2021/11/07 05:15:41;;;;;;;27.95;17.50;;;;;;;7.62;100.00;100943.50;5116717;28;20046;-72
2021/11/07 05:18:09;;;;;;;25.73;17.77;;;;;;;7.59;100.00;100937.44;5116182;28;20047;-73
2021/11/07 05:20:39;;;;;;;26.10;16.85;;;;;;;7.59;100.00;100932.13;5116528;28;20056;-73
2021/11/07 05:23:07;;;;;;;27.10;17.15;;;;;;;7.58;100.00;100930.41;5116220;28;20044;-73
2021/11/07 05:25:36;;;;;;;30.08;17.95;;;;;;;7.55;100.00;100930.53;5115808;28;20041;-73
2021/11/07 05:28:05;;;;;;;28.45;18.00;;;;;;;7.53;100.00;100932.34;5115923;28;20039;-73
2021/11/07 05:30:33;;;;;;;24.83;17.02;;;;;;;7.57;100.00;100937.50;5116490;28;20079;-73
2021/11/07 05:33:02;;;;;;;27.92;17.40;;;;;;;7.60;100.00;100939.19;5116054;28;20040;-73
2021/11/07 05:35:30;;;;;;;27.40;17.33;;;;;;;7.58;100.00;100941.03;5098129;28;20078;-73
2021/11/07 05:38:00;;;;;;;25.90;17.15;;;;;;;7.58;100.00;100935.72;5116069;28;20051;-75
2021/11/07 05:40:29;;;;;;;27.02;17.05;;;;;;;7.59;100.00;100932.13;5116512;28;20069;-75
2021/11/07 05:42:58;;;;;;;28.60;17.33;;;;;;;7.61;100.00;100932.94;5115789;28;20048;-76
2021/11/07 05:45:26;;;;;;;23.40;15.77;;;;;;;7.96;100.00;100935.13;5116085;28;20043;-75
2021/11/07 05:47:54;;;;;;;26.10;16.98;;;;;;;8.19;100.00;100933.38;5115829;28;20044;-77
2021/11/07 05:50:24;;;;;;;27.77;16.27;;;;;;;8.02;100.00;100942.03;5116053;28;20084;-77
2021/11/07 05:52:53;;;;;;;28.15;17.08;;;;;;;7.91;100.00;100961.03;5115749;28;20389;-78
2021/11/07 05:55:22;;;;;;;27.13;17.42;;;;;;;7.89;100.00;100967.28;5116031;28;20039;-77
2021/11/07 05:57:50;;;;;;;23.98;16.13;;;;;;;7.98;100.00;100962.50;5115402;28;20555;-77
2021/11/07 06:00:20;;;;;;;23.80;15.35;;;;;;;8.02;100.00;100964.13;5115872;28;20036;-77
2021/11/07 06:02:49;;;;;;;25.92;15.88;;;;;;;7.81;100.00;100974.69;5116248;28;20123;-76
2021/11/07 06:05:19;;;;;;;24.33;16.17;;;;;;;7.81;100.00;100972.88;5115724;28;20048;-75
2021/11/07 06:07:49;;;;;;;26.80;16.08;;;;;;;7.83;100.00;100973.72;5115338;28;20104;-75
2021/11/07 06:10:18;;;;;;;25.90;16.67;;;;;;;7.84;100.00;100971.94;5115905;28;20048;-74
2021/11/07 06:12:48;;;;;;;26.90;17.40;;;;;;;7.86;100.00;100981.56;5115298;28;20050;-75
2021/11/07 06:15:17;;;;;;;23.92;15.65;;;;;;;7.77;100.00;100981.91;5115628;28;20043;-74
2021/11/07 06:17:45;;;;;;;26.27;16.77;;;;;;;7.85;100.00;100974.53;5115451;28;20043;-72
2021/11/07 06:20:13;;;;;;;27.33;16.83;;;;;;;7.82;100.00;100961.38;5114981;28;20481;-72
2021/11/07 06:22:42;;;;;;;25.58;16.27;;;;;;;7.75;100.00;100949.25;5114978;28;20044;-72
2021/11/07 06:25:10;;;;;;;21.20;14.00;;;;;;;7.80;100.00;100938.44;5114715;28;20073;-73
2021/11/07 06:27:39;;;;;;;23.92;14.60;;;;;;;7.82;100.00;100940.13;5114877;28;20051;-74
2021/11/07 06:30:10;;;;;;;21.48;14.38;;;;;;;7.86;100.00;100927.59;5114944;28;20461;-75
2021/11/07 06:32:39;;;;;;;22.20;14.88;;;;;;;7.81;100.00;100926.88;5115377;28;20040;-75
2021/11/07 06:35:10;;;;;;;20.88;14.65;;;;;;;7.85;100.00;100929.38;5114061;28;20100;-73
2021/11/07 06:37:39;;;;;;;22.27;13.95;;;;;;;7.70;100.00;100916.66;5114637;28;20443;-73
2021/11/07 06:40:09;;;;;;;23.42;14.85;;;;;;;7.74;100.00;100936.88;5114562;28;20048;-73
2021/11/07 06:42:38;;;;;;;21.95;14.63;;;;;;;7.82;100.00;100921.53;5115009;28;20044;-74
2021/11/07 06:45:11;;;;;;;25.58;15.73;;;;;;;7.86;100.00;100893.06;5114774;28;20089;-73
2021/11/07 06:47:42;;;;;;;25.52;15.57;;;;;;;7.89;100.00;100869.88;5114961;28;20048;-73
2021/11/07 06:50:11;;;;;;;24.35;15.80;;;;;;;7.88;100.00;100860.19;5114935;28;20048;-71
2021/11/07 06:52:40;;;;;;;24.33;16.02;;;;;;;7.84;100.00;100865.69;5114858;28;20058;-71
2021/11/07 06:55:10;;;;;;;28.35;17.00;;;;;;;7.79;100.00;100859.69;5114337;28;20085;-71
2021/11/07 06:57:39;;;;;;;25.80;17.27;;;;;;;7.86;100.00;100856.72;5114564;28;20097;-72
2021/11/07 07:00:12;;;;;;;26.92;17.60;;;;;;;7.74;100.00;100881.13;5114432;28;20050;-73
2021/11/07 07:02:41;;;;;;;27.73;17.73;;;;;;;7.76;100.00;100871.28;5114674;28;20543;-72
2021/11/07 07:05:13;;;;;;;28.38;18.33;;;;;;;7.69;100.00;100872.44;5114354;28;20051;-71
2021/11/07 07:07:45;;;;;;;30.83;19.58;;;;;;;7.68;100.00;100876.91;5114741;28;20443;-72
2021/11/07 07:10:20;;;;;;;34.13;20.13;;;;;;;7.75;100.00;100893.47;5114253;28;20050;-72
2021/11/07 07:12:53;;;;;;;31.25;20.98;;;;;;;7.77;100.00;100873.03;5114577;28;20130;-72
2021/11/07 07:15:25;;;;;;;33.92;20.70;;;;;;;7.87;100.00;100855.81;5114204;28;20062;-72
2021/11/07 07:18:01;;;;;;;28.88;19.27;;;;;;;8.01;100.00;100860.59;5114818;28;20044;-72
2021/11/07 07:20:53;;;;;;;29.95;19.02;;;;;;;7.91;100.00;100828.22;5114497;28;20104;-72
2021/11/07 07:23:55;;;;;;;30.17;18.55;;;;;;;8.15;100.00;100831.66;5114541;28;20066;-72
2021/11/07 07:29:18;;;;;;;27.92;18.27;;;;;;;7.97;100.00;100843.88;5113921;28;20043;-73
2021/11/07 07:31:57;;;;;;;29.65;19.13;;;;;;;7.87;100.00;100847.84;5113772;28;20467;-73
2021/11/07 07:34:27;;;;;;;30.58;19.95;;;;;;;7.95;100.00;100847.53;5114393;28;20043;-72
2021/11/07 07:36:56;;;;;;;29.70;20.17;;;;;;;8.00;100.00;100830.47;5113712;28;20039;-72
2021/11/07 07:39:24;;;;;;;28.95;19.23;;;;;;;7.93;100.00;100849.41;5113718;28;20048;-72
2021/11/07 07:41:53;;;;;;;30.92;20.20;;;;;;;7.89;100.00;100856.59;5113542;28;20050;-72
2021/11/07 07:44:25;;;;;;;28.08;19.50;;;;;;;7.83;100.00;100863.97;5113525;28;20044;-71
2021/11/07 07:46:55;;;;;;;31.42;20.08;;;;;;;7.87;100.00;100858.47;5113438;28;20066;-70
2021/11/07 07:49:23;;;;;;;30.05;20.13;;;;;;;8.00;100.00;100854.38;5113485;28;20047;-72
2021/11/07 07:51:52;;;;;;;29.05;20.45;;;;;;;8.04;100.00;100841.84;5113820;28;20516;-73
2021/11/07 07:54:20;;;;;;;29.58;19.70;;;;;;;8.19;100.00;100811.97;5113423;28;20040;-72
2021/11/07 07:56:49;;;;;;;27.98;19.83;;;;;;;8.32;100.00;100807.03;5113432;28;20039;-72
2021/11/07 07:59:17;;;;;;;28.23;19.60;;;;;;;8.30;100.00;100793.81;5113516;28;20036;-75
2021/11/07 08:01:45;;;;;;;30.33;19.90;;;;;;;8.25;100.00;100792.28;5113250;28;20062;-73
2021/11/07 08:04:16;;;;;;;28.52;19.65;;;;;;;8.33;100.00;100783.06;5113496;28;20050;-70
2021/11/07 08:06:44;;;;;;;31.80;20.67;;;;;;;8.25;100.00;100784.31;5113699;28;20051;-70
2021/11/07 08:09:12;;;;;;;31.60;21.05;;;;;;;8.25;100.00;100790.47;5113479;28;20040;-70
2021/11/07 08:11:42;;;;;;;31.73;21.17;;;;;;;8.24;100.00;100771.94;5094952;28;20097;-71
2021/11/07 08:14:10;;;;;;;30.42;20.15;;;;;;;8.36;100.00;100744.88;5113435;28;20036;-70
2021/11/07 08:16:38;;;;;;;31.80;21.23;;;;;;;8.49;100.00;100767.34;5115895;28;20040;-70
2021/11/07 08:19:07;;;;;;;28.58;19.33;;;;;;;8.60;100.00;100754.44;5113043;28;20408;-70
2021/11/07 08:21:40;;;;;;;33.40;20.77;;;;;;;8.58;100.00;100761.59;5113282;28;20040;-73
2021/11/07 08:24:10;;;;;;;31.77;21.52;;;;;;;8.54;100.00;100773.31;5095160;28;20055;-74
2021/11/07 08:26:42;;;;;;;34.42;23.08;;;;;;;8.59;100.00;100776.66;5113371;28;20088;-73
2021/11/07 08:29:13;;;;;;;32.42;22.60;;;;;;;8.64;100.00;100781.75;5113569;28;20051;-73
2021/11/07 08:31:43;;;;;;;30.60;21.77;;;;;;;8.75;100.00;100783.94;5113109;28;20043;-73
2021/11/07 08:34:12;;;;;;;31.83;21.65;;;;;;;8.79;100.00;100774.91;5113335;28;20059;-74
2021/11/07 08:36:49;;;;;;;32.65;20.90;;;;;;;8.86;100.00;100771.88;5111747;28;20040;-75
2021/11/07 08:39:20;;;;;;;30.40;19.48;;;;;;;9.08;100.00;100774.47;5109726;28;20125;-73
2021/11/07 08:41:54;;;;;;;28.63;18.00;;;;;;;9.11;100.00;100776.97;5111828;28;20047;-73
2021/11/07 09:01:28;;;;;;;24.55;16.27;;;;;;;9.40;100.00;100740.16;5117198;28;20070;-73
2021/11/07 09:04:05;;;;;;;27.52;17.95;;;;;;;9.45;100.00;100738.97;5117203;28;20119;-72
2021/11/07 09:06:44;;;;;;;29.63;18.20;;;;;;;9.46;100.00;100761.16;5116885;28;20064;-72
2021/11/07 09:09:15;;;;;;;25.98;17.38;;;;;;;9.52;100.00;100744.88;5116286;28;20047;-72
2021/11/07 09:11:51;;;;;;;27.50;17.77;;;;;;;9.49;100.00;100746.84;5116259;28;20555;-71
2021/11/07 09:14:23;;;;;;;27.85;18.45;;;;;;;9.49;100.00;100744.19;5107181;28;20052;-71
2021/11/07 09:16:52;;;;;;;27.48;17.80;;;;;;;9.50;100.00;100737.91;5117093;28;20179;-71
2021/11/07 09:19:24;;;;;;;28.63;17.40;;;;;;;9.52;100.00;100734.22;5097095;28;20051;-72
2021/11/07 09:22:03;;;;;;;24.73;16.35;;;;;;;9.40;100.00;100743.66;5115382;28;20039;-71
2021/11/07 09:24:36;;;;;;;24.23;15.73;;;;;;;9.41;100.00;100748.06;5114828;28;20135;-72
2021/11/07 09:27:12;;;;;;;25.15;15.95;;;;;;;9.43;100.00;100750.66;5115836;28;20044;-72
2021/11/07 09:29:57;;;;;;;29.85;17.67;;;;;;;9.52;100.00;100754.66;5115095;28;20122;-72
2021/11/07 09:32:42;;;;;;;25.05;16.65;;;;;;;9.72;100.00;100755.44;5114960;28;20044;-72
2021/11/07 09:35:36;;;;;;;25.17;16.52;;;;;;;9.88;100.00;100757.34;5114938;28;20047;-74
2021/11/07 09:38:07;;;;;;;26.05;17.15;;;;;;;10.01;100.00;100763.78;5097269;28;20111;-75
2021/11/07 09:40:46;;;;;;;26.05;16.65;;;;;;;10.12;100.00;100765.91;5115050;28;20089;-75
2021/11/07 09:43:25;;;;;;;25.88;17.55;;;;;;;10.27;100.00;100771.38;5114163;28;20126;-73
2021/11/07 09:46:07;;;;;;;27.63;18.15;;;;;;;10.28;100.00;100757.13;5115282;28;20048;-75
2021/11/07 09:48:41;;;;;;;26.52;17.17;;;;;;;10.35;100.00;100735.47;5114555;28;20119;-72
2021/11/07 09:51:16;;;;;;;28.50;17.35;;;;;;;10.37;100.00;100728.25;5114999;28;20054;-73
2021/11/07 09:53:45;;;;;;;28.67;17.65;;;;;;;10.42;100.00;100726.19;5114369;28;20464;-70
2021/11/07 09:56:15;;;;;;;26.30;17.90;;;;;;;10.46;100.00;100733.97;5114716;28;20079;-73
2021/11/07 09:58:46;;;;;;;28.92;17.52;;;;;;;10.41;100.00;100735.16;5113709;28;20047;-72
2021/11/07 10:01:15;;;;;;;28.08;18.33;;;;;;;10.39;100.00;100724.56;5114768;28;20152;-73
2021/11/07 10:03:45;;;;;;;27.60;17.35;;;;;;;10.39;100.00;100716.56;5114637;28;20130;-73
2021/11/07 10:06:27;;;;;;;25.67;16.95;;;;;;;10.52;100.00;100714.13;5114560;28;20040;-76
2021/11/07 10:08:59;;;;;;;29.27;18.73;;;;;;;10.42;100.00;100704.88;5115061;28;20044;-76
2021/11/07 10:11:34;;;;;;;25.20;17.25;;;;;;;10.40;100.00;100704.09;5113112;28;20048;-73
2021/11/07 10:14:11;;;;;;;29.52;19.30;;;;;;;10.39;100.00;100707.69;5114729;28;20043;-79
2021/11/07 10:16:46;;;;;;;28.30;18.38;;;;;;;10.35;100.00;100695.47;5114701;28;20550;-76
2021/11/07 10:19:23;;;;;;;26.25;17.25;;;;;;;10.32;100.00;100689.34;5114711;28;20035;-75
2021/11/07 10:21:52;;;;;;;24.20;16.80;;;;;;;10.23;100.00;100675.63;5114973;28;20036;-73
2021/11/07 10:24:25;;;;;;;28.00;16.92;;;;;;;10.24;100.00;100664.06;5115817;28;20368;-74
2021/11/07 10:26:59;;;;;;;25.95;17.27;;;;;;;10.17;100.00;100652.81;5114847;28;20055;-72
2021/11/07 10:29:34;;;;;;;28.52;18.02;;;;;;;10.07;100.00;100653.38;5114113;28;20043;-71
2021/11/07 10:32:09;;;;;;;26.13;17.50;;;;;;;9.88;100.00;100648.97;5114720;28;20070;-72
2021/11/07 10:35:11;;;;;;;24.10;16.40;;;;;;;9.79;100.00;100641.44;5114033;28;20506;-69
2021/11/07 10:40:44;;;;;;;25.52;16.65;;;;;;;9.73;100.00;100631.09;5113027;28;20048;-73
2021/11/07 10:43:47;;;;;;;24.60;16.33;;;;;;;9.77;100.00;100631.81;5114046;28;20123;-75
2021/11/07 10:46:43;;;;;;;25.92;15.98;;;;;;;9.76;100.00;100630.97;5114120;28;20436;-76
2021/11/07 10:52:21;;;;;;;22.23;14.70;;;;;;;10.06;100.00;100628.50;5114923;28;20369;-79
2021/11/07 10:54:59;;;;;;;22.75;13.25;;;;;;;10.00;100.00;100618.16;5114141;28;20480;-75
2021/11/07 10:57:30;;;;;;;22.45;13.80;;;;;;;9.91;100.00;100614.16;5113698;28;20036;-75
2021/11/07 11:00:14;;;;;;;22.42;14.02;;;;;;;9.81;100.00;100623.56;5114297;28;20042;-74
2021/11/07 11:02:44;;;;;;;22.52;13.40;;;;;;;9.79;100.00;100613.94;5114103;28;20506;-73
2021/11/07 11:05:14;;;;;;;22.52;13.15;;;;;;;9.71;100.00;100620.53;5114102;28;20458;-72
2021/11/07 11:08:04;;;;;;;20.40;12.80;;;;;;;9.75;100.00;100614.13;5113781;28;20035;-74
2021/11/07 11:10:46;;;;;;;21.15;12.75;;;;;;;9.79;100.00;100603.28;5113500;28;20036;-74
2021/11/07 11:13:26;;;;;;;21.80;12.57;;;;;;;9.91;100.00;100607.97;5113023;28;20511;-76
2021/11/07 11:16:16;;;;;;;22.85;13.73;;;;;;;10.09;100.00;100607.03;5113865;28;20050;-75
2021/11/07 11:19:13;;;;;;;23.58;14.55;;;;;;;10.40;100.00;100600.94;5113815;28;20089;-71
2021/11/07 11:24:41;;;;;;;24.65;15.68;;;;;;;10.77;100.00;100598.94;5113162;28;20044;-73
2021/11/07 11:27:27;;;;;;;24.42;15.55;;;;;;;10.89;100.00;100582.25;5113388;28;20077;-73
2021/11/07 11:32:47;;;;;;;21.98;14.88;;;;;;;10.91;100.00;100564.34;5081817;28;20176;-73
2021/11/07 11:35:20;;;;;;;25.75;15.80;;;;;;;10.83;100.00;100559.44;5113309;28;20048;-72
2021/11/07 11:37:59;;;;;;;23.48;14.90;;;;;;;10.78;100.00;100566.84;5113595;28;20397;-74
2021/11/07 11:40:45;;;;;;;27.45;16.92;;;;;;;10.77;100.00;100598.94;5113093;28;20373;-74
2021/11/07 11:43:17;;;;;;;27.13;15.95;;;;;;;10.73;100.00;100586.72;5112805;28;20035;-73
2021/11/07 11:45:55;;;;;;;26.55;16.50;;;;;;;10.75;100.00;100587.50;5094347;28;20079;-72
2021/11/07 11:48:50;;;;;;;24.85;15.77;;;;;;;10.75;100.00;100575.03;5112691;28;20067;-72
2021/11/07 11:51:29;;;;;;;24.92;16.42;;;;;;;10.69;100.00;100594.03;5113116;28;20058;-71
2021/11/07 11:57:17;;;;;;;27.83;17.08;;;;;;;10.48;100.00;100547.19;5077557;28;20079;-73
2021/11/07 11:59:55;;;;;;;28.00;17.83;;;;;;;10.40;100.00;100552.94;5113216;28;20039;-72
2021/11/07 12:02:29;;;;;;;29.40;18.40;;;;;;;10.29;100.00;100584.66;5112666;28;20093;-72
2021/11/07 12:05:15;;;;;;;27.50;17.75;;;;;;;10.44;100.00;100583.00;5112770;28;20078;-71
2021/11/07 12:08:21;;;;;;;28.80;18.00;;;;;;;10.66;100.00;100556.84;5112533;28;20045;-75
2021/11/07 12:10:57;;;;;;;30.13;17.87;;;;;;;10.74;100.00;100569.78;5112741;28;20410;-72